Time;durP1;ratioP1;P1;durP2;ratioP2;P2;SDS_P1;SDS_P2;PMS_P1;PMS_P2;Temp;Humidity;BMP_temperature;BMP_pressure;BME280_temperature;BME280_humidity;BME280_pressure;Samples;Min_cycle;Max_cycle;Signal;HPM_P1;HPM_P2
2023/07/28 00:00:21;;;;;;;3.00;1.80;;;;;;;15.63;56.86;96092.88;108328;1279;24262;-75
2023/07/28 00:03:12;;;;;;;2.30;2.00;;;;;;;15.65;56.71;96093.42;108302;1274;22543;-75
2023/07/28 00:05:45;;;;;;;2.20;1.90;;;;;;;15.67;56.56;96090.77;108318;1279;22528;-76
2023/07/28 00:08:16;;;;;;;2.90;1.90;;;;;;;15.70;56.39;96099.05;108371;1279;25940;-76
2023/07/28 00:10:47;;;;;;;1.20;1.10;;;;;;;15.72;56.18;96098.74;108326;1272;22522;-76
2023/07/28 00:13:18;;;;;;;2.40;1.80;;;;;;;15.78;55.99;96091.31;108367;1279;23005;-76
2023/07/28 00:15:49;;;;;;;2.60;1.80;;;;;;;15.80;55.89;96091.27;108302;1272;22867;-75
2023/07/28 00:18:21;;;;;;;2.60;1.70;;;;;;;15.79;55.64;96092.37;108301;1277;23197;-76
2023/07/28 00:20:52;;;;;;;4.20;2.20;;;;;;;15.78;55.59;96090.11;108333;1279;26449;-75
2023/07/28 00:23:23;;;;;;;2.80;1.70;;;;;;;15.78;55.53;96091.41;108330;1279;24221;-76
2023/07/28 00:25:57;;;;;;;2.10;1.70;;;;;;;15.79;55.45;96085.70;108323;1279;22520;-76
2023/07/28 00:28:30;;;;;;;2.90;2.00;;;;;;;15.77;55.51;96084.88;108314;1270;24228;-75
2023/07/28 00:31:04;;;;;;;2.30;1.70;;;;;;;15.73;55.67;96084.34;108336;1276;22752;-76
2023/07/28 00:33:39;;;;;;;2.30;1.50;;;;;;;15.70;55.81;96080.73;108349;1279;22523;-75
2023/07/28 00:36:10;;;;;;;2.30;1.80;;;;;;;15.69;55.94;96072.34;108335;1279;22761;-75
2023/07/28 00:38:43;;;;;;;2.00;1.50;;;;;;;15.70;55.80;96064.06;108306;1279;22548;-76
2023/07/28 00:41:14;;;;;;;2.80;1.70;;;;;;;15.74;56.07;96066.98;108330;1279;22987;-75
2023/07/28 00:43:45;;;;;;;3.30;2.10;;;;;;;15.74;56.05;96066.51;108317;1279;22534;-76
2023/07/28 00:46:17;;;;;;;2.30;1.70;;;;;;;15.71;56.03;96063.64;108307;1279;29611;-75
2023/07/28 00:48:48;;;;;;;3.10;2.10;;;;;;;15.68;56.19;96060.46;108335;1276;22467;-76
2023/07/28 00:51:19;;;;;;;4.40;1.90;;;;;;;15.65;56.29;96055.39;108358;1272;25256;-75
2023/07/28 00:53:52;;;;;;;2.20;1.80;;;;;;;15.63;56.44;96052.42;108323;1263;22528;-76
2023/07/28 00:56:24;;;;;;;4.50;2.10;;;;;;;15.62;56.56;96051.95;108303;1279;23909;-75
2023/07/28 00:58:56;;;;;;;4.20;1.60;;;;;;;15.64;56.53;96047.73;108352;1279;22605;-76
2023/07/28 01:01:27;;;;;;;3.80;1.70;;;;;;;15.67;56.67;96045.01;108314;1279;24250;-76
2023/07/28 01:03:59;;;;;;;3.00;2.10;;;;;;;15.70;56.79;96045.60;108331;1279;22528;-76
2023/07/28 01:06:42;;;;;;;2.60;2.00;;;;;;;15.73;56.76;96036.52;108379;1279;22519;-76
2023/07/28 01:09:20;;;;;;;3.00;1.60;;;;;;;15.79;56.74;96031.58;108366;1279;23914;-76
2023/07/28 01:11:57;;;;;;;2.90;1.70;;;;;;;15.89;56.64;96034.05;108311;1274;22513;-76
2023/07/28 01:14:30;;;;;;;2.00;1.50;;;;;;;15.95;56.51;96027.89;108350;1273;25604;-76
2023/07/28 01:17:04;;;;;;;2.30;1.70;;;;;;;16.04;56.28;96019.64;108336;1276;22521;-76
2023/07/28 01:19:36;;;;;;;2.00;1.50;;;;;;;16.14;56.13;96022.67;108329;1279;23807;-76
2023/07/28 01:22:27;;;;;;;2.40;1.70;;;;;;;16.20;56.13;96021.30;108346;1279;22524;-76
2023/07/28 01:25:15;;;;;;;2.40;1.70;;;;;;;16.21;56.04;96013.17;108295;1279;22521;-77
2023/07/28 01:27:46;;;;;;;3.30;2.20;;;;;;;16.27;55.57;96005.25;108343;1267;25646;-76
2023/07/28 01:30:19;;;;;;;2.40;1.60;;;;;;;16.33;55.51;96015.73;108319;1279;22512;-76
2023/07/28 01:32:50;;;;;;;2.10;1.70;;;;;;;16.36;55.41;96009.61;108336;1279;22520;-76
2023/07/28 01:35:21;;;;;;;2.30;1.70;;;;;;;16.40;55.13;96010.38;108289;1279;24840;-76
2023/07/28 01:37:53;;;;;;;4.60;1.60;;;;;;;16.44;54.91;95997.20;108342;1279;25434;-76
2023/07/28 01:40:24;;;;;;;3.40;1.80;;;;;;;16.47;54.86;96001.65;108319;1276;22544;-76
2023/07/28 01:42:55;;;;;;;2.80;2.00;;;;;;;16.48;54.97;95999.67;108291;1273;22514;-76
2023/07/28 01:45:26;;;;;;;3.40;1.70;;;;;;;16.47;54.97;95990.52;108273;1277;24225;-76
2023/07/28 01:47:57;;;;;;;1.70;1.40;;;;;;;16.47;55.10;95985.00;108336;1274;25461;-77
2023/07/28 01:50:30;;;;;;;4.20;2.10;;;;;;;16.48;55.10;95985.28;108347;1272;22566;-76
2023/07/28 01:53:04;;;;;;;2.80;2.00;;;;;;;16.48;55.17;95979.34;108381;1278;23414;-77
2023/07/28 01:55:35;;;;;;;3.40;2.30;;;;;;;16.49;55.33;95983.89;108323;1261;22524;-76
2023/07/28 01:58:06;;;;;;;2.80;1.70;;;;;;;16.48;55.48;95977.42;108344;1273;23208;-77
2023/07/28 02:00:37;;;;;;;3.00;2.30;;;;;;;16.45;55.75;95976.52;108344;1279;22518;-77
2023/07/28 02:03:09;;;;;;;2.50;1.90;;;;;;;16.42;55.76;95966.64;108335;1279;22776;-76
2023/07/28 02:05:41;;;;;;;2.70;1.90;;;;;;;16.41;55.94;95961.33;108309;1279;24425;-77
2023/07/28 02:08:12;;;;;;;3.30;2.10;;;;;;;16.40;56.09;95961.40;108320;1277;22514;-76
2023/07/28 02:10:43;;;;;;;2.70;1.70;;;;;;;16.45;56.09;95962.67;108348;1273;22573;-76
2023/07/28 02:13:14;;;;;;;1.70;1.50;;;;;;;16.48;56.16;95955.98;108325;1279;23274;-77
2023/07/28 02:15:45;;;;;;;3.40;1.80;;;;;;;16.48;56.10;95954.85;108347;1279;26573;-77
2023/07/28 02:18:16;;;;;;;3.00;1.60;;;;;;;16.49;56.03;95954.15;108315;1276;25504;-76
2023/07/28 02:20:50;;;;;;;3.60;1.70;;;;;;;16.49;56.18;95950.92;108350;1279;25304;-76
2023/07/28 02:23:23;;;;;;;3.70;1.70;;;;;;;16.48;56.04;95948.65;108312;1279;22559;-76
2023/07/28 02:25:54;;;;;;;1.90;1.50;;;;;;;16.49;56.02;95959.63;108331;1279;22518;-77
2023/07/28 02:28:25;;;;;;;2.70;2.10;;;;;;;16.49;56.19;95958.17;108322;1279;22867;-77
2023/07/28 02:30:56;;;;;;;2.40;1.70;;;;;;;16.48;56.22;95955.57;108341;1279;22532;-77
2023/07/28 02:33:35;;;;;;;3.20;1.90;;;;;;;16.49;56.22;95955.52;108350;1279;25944;-76
2023/07/28 02:36:06;;;;;;;3.20;1.70;;;;;;;16.51;56.24;95952.36;108314;1279;22543;-76
2023/07/28 02:38:37;;;;;;;2.50;1.60;;;;;;;16.51;56.19;95945.46;108348;1279;22526;-76
2023/07/28 02:41:08;;;;;;;3.90;1.80;;;;;;;16.54;56.37;95948.70;108301;1279;22524;-76
2023/07/28 02:43:39;;;;;;;2.70;2.00;;;;;;;16.57;56.21;95955.67;108346;1279;22534;-76
2023/07/28 02:46:12;;;;;;;1.30;1.00;;;;;;;16.59;56.31;95955.44;108306;1279;56246;-76
2023/07/28 02:48:46;;;;;;;3.00;2.00;;;;;;;16.61;56.34;95966.69;108307;1279;22638;-76
2023/07/28 02:51:17;;;;;;;2.60;2.00;;;;;;;16.62;56.28;95956.77;108291;1279;22941;-76
2023/07/28 02:53:48;;;;;;;2.50;1.80;;;;;;;16.62;56.39;95961.67;108340;1279;26537;-76
2023/07/28 02:56:20;;;;;;;3.10;2.10;;;;;;;16.57;56.54;95957.84;108305;1279;22506;-76
2023/07/28 02:58:51;;;;;;;3.20;1.80;;;;;;;16.55;56.60;95967.48;108327;1279;22585;-76
2023/07/28 03:01:22;;;;;;;2.70;1.70;;;;;;;16.52;56.83;95965.46;108332;1279;26459;-76
2023/07/28 03:03:53;;;;;;;2.50;1.90;;;;;;;16.49;56.93;95965.45;108337;1279;22527;-76
2023/07/28 03:06:24;;;;;;;1.80;1.30;;;;;;;16.46;57.12;95959.23;108288;1277;24160;-76
2023/07/28 03:08:56;;;;;;;3.50;1.80;;;;;;;16.45;57.10;95953.21;108332;1276;22651;-76
2023/07/28 03:11:29;;;;;;;2.00;1.80;;;;;;;16.45;57.07;95948.91;108317;1279;23013;-76
2023/07/28 03:14:00;;;;;;;2.90;2.00;;;;;;;16.43;57.18;95939.84;108331;1274;22518;-76
2023/07/28 03:16:39;;;;;;;3.60;1.90;;;;;;;16.41;57.29;95946.29;108310;1274;22517;-76
2023/07/28 03:19:10;;;;;;;3.20;1.90;;;;;;;16.41;57.37;95945.97;108334;1279;26065;-76
2023/07/28 03:21:41;;;;;;;2.60;1.40;;;;;;;16.42;57.39;95956.54;108327;1272;22558;-76
2023/07/28 03:24:12;;;;;;;3.00;2.00;;;;;;;16.42;57.43;95951.03;108344;1273;22530;-76
2023/07/28 03:26:43;;;;;;;2.20;1.80;;;;;;;16.40;57.61;95958.63;108311;1279;22706;-76
2023/07/28 03:29:14;;;;;;;2.30;2.10;;;;;;;16.41;57.72;95958.28;108301;1279;22568;-77
2023/07/28 03:31:46;;;;;;;1.80;1.40;;;;;;;16.41;57.81;95963.63;108375;1279;24890;-77
2023/07/28 03:34:17;;;;;;;2.70;1.80;;;;;;;16.43;57.83;95953.75;108317;1272;22524;-76
2023/07/28 03:36:48;;;;;;;3.50;1.80;;;;;;;16.46;57.83;95953.31;108304;1279;23077;-76
2023/07/28 03:39:18;;;;;;;3.10;1.60;;;;;;;16.47;57.90;95955.52;108336;1274;22576;-76
2023/07/28 03:41:49;;;;;;;2.50;1.40;;;;;;;16.49;57.98;95945.71;108293;1272;25890;-77
2023/07/28 03:44:21;;;;;;;2.30;1.70;;;;;;;16.52;57.95;95945.66;108297;1279;25291;-76
2023/07/28 03:46:53;;;;;;;2.00;1.60;;;;;;;16.56;57.95;95933.31;108310;1279;22548;-76
2023/07/28 03:49:24;;;;;;;2.70;1.90;;;;;;;16.57;57.96;95932.35;108524;1272;22577;-77
2023/07/28 03:51:55;;;;;;;2.40;1.90;;;;;;;16.56;58.05;95936.02;108310;1279;23834;-77
2023/07/28 03:54:26;;;;;;;2.90;2.00;;;;;;;16.53;58.30;95932.17;108346;1273;23879;-77
2023/07/28 03:56:57;;;;;;;3.60;1.80;;;;;;;16.51;58.32;95932.02;108315;1279;25429;-77
2023/07/28 03:59:30;;;;;;;2.90;1.60;;;;;;;16.49;58.48;95926.31;108315;1273;22535;-77
2023/07/28 04:02:01;;;;;;;1.90;1.70;;;;;;;16.50;58.47;95921.77;108350;1279;23479;-76
2023/07/28 04:04:32;;;;;;;2.60;2.00;;;;;;;16.53;58.61;95920.46;108281;1279;22554;-77
2023/07/28 04:07:06;;;;;;;2.20;1.70;;;;;;;16.54;58.70;95921.11;108316;1279;24162;-76
2023/07/28 04:09:37;;;;;;;2.50;2.10;;;;;;;16.54;58.74;95912.09;108351;1279;22520;-77
2023/07/28 04:12:10;;;;;;;2.90;1.70;;;;;;;16.55;58.79;95906.75;108296;1273;25536;-76
2023/07/28 04:14:41;;;;;;;3.60;1.90;;;;;;;16.55;58.82;95905.99;108338;1279;23021;-77
2023/07/28 04:17:13;;;;;;;2.00;1.80;;;;;;;16.54;58.98;95907.33;108304;1279;24231;-76
2023/07/28 04:19:44;;;;;;;2.40;2.00;;;;;;;16.53;59.07;95912.44;108359;1256;22518;-76
2023/07/28 04:22:21;;;;;;;2.50;1.40;;;;;;;16.54;59.05;95911.08;108336;1272;22567;-76
2023/07/28 04:24:53;;;;;;;2.30;1.60;;;;;;;16.55;59.08;95903.94;108299;1279;23874;-77
2023/07/28 04:27:25;;;;;;;2.70;1.90;;;;;;;16.62;59.02;95913.34;108312;1278;22603;-76
2023/07/28 04:29:56;;;;;;;2.70;2.10;;;;;;;16.67;58.99;95908.08;108311;1276;22989;-76
2023/07/28 04:32:27;;;;;;;3.80;1.90;;;;;;;16.72;58.93;95903.42;108317;1279;24251;-76
2023/07/28 04:35:02;;;;;;;2.40;1.80;;;;;;;16.76;58.87;95909.02;108324;1279;22524;-76
2023/07/28 04:37:35;;;;;;;2.60;1.90;;;;;;;16.77;58.80;95911.49;108326;1279;22531;-76
2023/07/28 04:40:08;;;;;;;4.40;2.10;;;;;;;16.79;58.88;95903.73;108343;1279;23470;-76
2023/07/28 04:42:40;;;;;;;2.50;1.60;;;;;;;16.77;58.95;95898.86;108394;1271;23051;-77
2023/07/28 04:45:12;;;;;;;2.00;1.60;;;;;;;16.80;58.87;95892.82;108169;1279;143494;-76
2023/07/28 04:47:45;;;;;;;2.40;1.80;;;;;;;16.82;58.90;95894.95;108319;1279;22502;-77
2023/07/28 04:50:16;;;;;;;3.20;2.20;;;;;;;16.82;58.98;95895.73;108360;1279;22518;-77
2023/07/28 04:52:47;;;;;;;3.60;1.50;;;;;;;16.82;58.95;95890.42;108329;1279;25060;-77
2023/07/28 04:55:18;;;;;;;3.60;1.80;;;;;;;16.80;58.97;95895.89;108365;1271;22751;-77
2023/07/28 04:57:50;;;;;;;3.50;1.90;;;;;;;16.78;58.95;95898.28;108362;1279;24359;-76
2023/07/28 05:00:22;;;;;;;3.30;2.10;;;;;;;16.76;59.08;95897.22;108384;1279;23901;-77
2023/07/28 05:02:53;;;;;;;2.90;1.80;;;;;;;16.71;59.27;95900.49;108347;1279;22728;-76
2023/07/28 05:05:25;;;;;;;2.40;1.40;;;;;;;16.67;59.53;95896.68;108342;1272;25501;-76
2023/07/28 05:07:56;;;;;;;1.80;1.30;;;;;;;16.64;59.76;95889.94;108306;1279;22536;-77
2023/07/28 05:10:28;;;;;;;2.90;1.70;;;;;;;16.61;60.07;95894.27;108310;1279;25424;-76
2023/07/28 05:12:59;;;;;;;2.80;1.70;;;;;;;16.58;60.20;95890.72;108279;1272;22581;-77
2023/07/28 05:15:32;;;;;;;2.40;1.60;;;;;;;16.55;60.37;95886.44;108269;1279;22531;-76
2023/07/28 05:18:03;;;;;;;3.60;2.00;;;;;;;16.53;60.58;95883.98;108317;1279;25502;-76
2023/07/28 05:20:36;;;;;;;2.80;1.70;;;;;;;16.50;60.85;95886.73;108325;1279;24324;-77
2023/07/28 05:23:08;;;;;;;2.20;2.00;;;;;;;16.49;61.13;95889.37;108254;1276;25421;-76
2023/07/28 05:25:39;;;;;;;3.50;2.30;;;;;;;16.48;61.37;95885.06;108293;1272;26315;-77
2023/07/28 05:28:10;;;;;;;2.00;1.80;;;;;;;16.46;61.58;95887.74;108311;1271;24009;-77
2023/07/28 05:30:41;;;;;;;4.40;1.90;;;;;;;16.41;61.80;95889.73;108283;1279;22517;-77
2023/07/28 05:33:12;;;;;;;3.80;2.30;;;;;;;16.36;62.20;95884.13;108319;1268;22544;-77
2023/07/28 05:35:43;;;;;;;4.60;1.90;;;;;;;16.31;62.70;95889.46;108307;1276;22524;-77
2023/07/28 05:38:14;;;;;;;3.80;2.10;;;;;;;16.22;63.26;95886.27;108284;1279;22567;-77
2023/07/28 05:40:45;;;;;;;1.80;1.30;;;;;;;16.08;64.13;95881.52;108324;1279;22680;-76
2023/07/28 05:43:16;;;;;;;4.10;2.10;;;;;;;15.98;64.86;95890.66;108332;1272;22529;-77
2023/07/28 05:45:50;;;;;;;4.70;1.90;;;;;;;15.93;65.45;95900.03;108295;1276;22571;-76
2023/07/28 05:48:21;;;;;;;4.10;2.00;;;;;;;15.87;66.07;95898.91;108308;1279;24229;-77
2023/07/28 05:50:53;;;;;;;3.80;2.00;;;;;;;15.85;66.41;95890.22;108339;1272;22940;-76
2023/07/28 05:53:24;;;;;;;2.20;1.90;;;;;;;15.83;66.73;95895.65;108380;1279;23718;-76
2023/07/28 05:55:58;;;;;;;2.50;1.70;;;;;;;15.82;66.88;95890.77;108296;1273;22517;-77
2023/07/28 05:58:34;;;;;;;3.40;1.70;;;;;;;15.77;67.22;95896.17;108328;1279;24217;-76
2023/07/28 06:01:08;;;;;;;3.10;2.30;;;;;;;15.70;67.52;95899.92;108312;1272;22528;-76
2023/07/28 06:03:39;;;;;;;3.80;1.90;;;;;;;15.64;67.96;95905.05;108276;1279;22543;-77
2023/07/28 06:06:10;;;;;;;3.30;2.00;;;;;;;15.57;68.38;95900.32;108306;1279;25282;-76
2023/07/28 06:08:41;;;;;;;2.00;1.80;;;;;;;15.52;69.04;95894.90;108280;1279;25103;-76
2023/07/28 06:11:14;;;;;;;3.70;2.20;;;;;;;15.49;69.47;95896.39;108305;1277;25288;-76
2023/07/28 06:13:46;;;;;;;6.30;2.00;;;;;;;15.43;69.90;95906.95;108325;1279;24297;-76
2023/07/28 06:16:18;;;;;;;2.60;2.00;;;;;;;15.44;70.20;95903.30;108304;1272;24198;-76
2023/07/28 06:18:48;;;;;;;3.00;2.10;;;;;;;15.44;70.51;95910.00;108317;1269;22553;-77
2023/07/28 06:21:20;;;;;;;2.90;2.10;;;;;;;15.36;70.82;95903.09;108372;1279;22520;-77
2023/07/28 06:23:51;;;;;;;3.90;2.70;;;;;;;15.25;71.43;95899.84;108296;1279;22572;-77
2023/07/28 06:26:22;;;;;;;2.60;2.10;;;;;;;15.16;72.13;95892.88;108284;1279;25257;-77
2023/07/28 06:28:53;;;;;;;2.50;2.10;;;;;;;15.08;72.69;95896.52;108297;1277;22571;-77
2023/07/28 06:31:24;;;;;;;3.30;2.00;;;;;;;15.03;73.31;95894.06;108284;1279;22531;-77
2023/07/28 06:33:55;;;;;;;2.80;2.20;;;;;;;15.02;73.78;95901.65;108309;1279;22635;-77
2023/07/28 06:36:29;;;;;;;3.30;2.30;;;;;;;15.03;74.26;95901.33;108302;1272;22538;-77
2023/07/28 06:39:06;;;;;;;2.10;1.80;;;;;;;15.06;74.62;95901.55;108516;1271;22524;-77
2023/07/28 06:41:37;;;;;;;3.60;2.10;;;;;;;15.07;75.41;95902.32;108322;1270;22531;-77
2023/07/28 06:44:09;;;;;;;2.40;1.70;;;;;;;15.10;75.57;95905.09;108298;1279;24341;-77
2023/07/28 06:46:40;;;;;;;4.00;2.50;;;;;;;15.11;75.81;95901.69;108320;1279;23042;-76
2023/07/28 06:49:14;;;;;;;4.30;2.80;;;;;;;15.13;76.01;95897.97;108303;1279;24314;-77
2023/07/28 06:51:45;;;;;;;3.00;2.40;;;;;;;15.16;76.12;95891.44;108330;1279;24813;-77
2023/07/28 06:54:16;;;;;;;2.00;1.60;;;;;;;15.17;76.31;95894.81;108344;1255;22510;-77
2023/07/28 06:56:47;;;;;;;3.20;2.40;;;;;;;15.16;76.67;95901.80;108272;1279;22544;-77
2023/07/28 06:59:21;;;;;;;3.00;2.30;;;;;;;15.18;76.71;95904.36;108314;1279;25295;-77
2023/07/28 07:01:52;;;;;;;3.00;1.70;;;;;;;15.21;76.87;95910.55;108311;1279;22577;-76
2023/07/28 07:04:23;;;;;;;3.40;2.20;;;;;;;15.22;77.33;95912.96;108302;1271;22571;-76
2023/07/28 07:06:54;;;;;;;4.90;2.30;;;;;;;15.24;77.38;95911.79;108281;1272;23907;-76
2023/07/28 07:09:28;;;;;;;3.00;2.50;;;;;;;15.25;77.51;95922.80;108331;1279;22565;-76
2023/07/28 07:11:59;;;;;;;2.50;1.90;;;;;;;15.24;77.59;95921.87;108311;1279;22513;-76
2023/07/28 07:14:33;;;;;;;3.00;2.20;;;;;;;15.24;77.76;95929.64;108337;1279;22522;-77
2023/07/28 07:17:05;;;;;;;3.20;1.90;;;;;;;15.25;77.85;95928.52;108292;1279;22570;-76
2023/07/28 07:19:36;;;;;;;4.20;2.10;;;;;;;15.25;78.12;95926.64;108318;1279;22750;-76
2023/07/28 07:22:08;;;;;;;3.80;2.40;;;;;;;15.25;78.45;95927.48;108303;1279;22541;-77
2023/07/28 07:24:39;;;;;;;3.40;2.30;;;;;;;15.27;78.56;95930.36;108300;1272;25410;-76
2023/07/28 07:27:11;;;;;;;2.70;1.80;;;;;;;15.29;78.87;95927.09;108278;1276;22538;-76
2023/07/28 07:29:42;;;;;;;4.50;2.60;;;;;;;15.30;79.15;95924.83;108340;1272;27595;-76
2023/07/28 07:32:15;;;;;;;2.00;1.40;;;;;;;15.35;79.25;95922.27;108333;1279;22535;-76
2023/07/28 07:34:47;;;;;;;2.70;2.20;;;;;;;15.37;79.60;95926.64;108300;1272;22546;-76
2023/07/28 07:37:18;;;;;;;4.10;2.60;;;;;;;15.42;79.66;95930.70;108326;1272;22581;-76
2023/07/28 07:39:50;;;;;;;3.10;2.40;;;;;;;15.47;79.68;95929.55;108326;1279;22520;-76
2023/07/28 07:42:21;;;;;;;4.10;2.50;;;;;;;15.50;79.80;95937.18;108354;1279;23799;-76
2023/07/28 07:44:52;;;;;;;3.70;2.60;;;;;;;15.54;79.84;95939.91;108296;1279;22614;-76
2023/07/28 07:47:23;;;;;;;3.70;2.40;;;;;;;15.57;79.79;95942.08;108335;1272;22520;-76
2023/07/28 07:49:55;;;;;;;4.00;2.40;;;;;;;15.62;79.83;95941.77;108305;1279;26547;-76
2023/07/28 07:52:26;;;;;;;4.00;2.60;;;;;;;15.69;79.93;95942.94;108308;1279;25381;-76
2023/07/28 07:54:59;;;;;;;4.00;2.50;;;;;;;15.77;79.81;95948.77;108283;1273;22530;-77
2023/07/28 07:57:31;;;;;;;3.90;2.40;;;;;;;15.82;79.58;95947.55;108299;1279;25572;-76
2023/07/28 08:00:04;;;;;;;3.50;2.40;;;;;;;15.87;79.62;95954.27;108270;1271;22553;-76
2023/07/28 08:02:38;;;;;;;4.80;2.70;;;;;;;15.90;79.67;95957.08;108310;1279;22551;-76
2023/07/28 08:05:10;;;;;;;4.00;2.20;;;;;;;15.92;79.87;95957.06;108278;1276;25287;-76
2023/07/28 08:07:44;;;;;;;3.10;2.30;;;;;;;15.94;80.11;95959.65;108283;1279;23275;-76
2023/07/28 08:10:15;;;;;;;4.00;2.40;;;;;;;15.92;80.43;95968.84;108329;1279;25336;-75
2023/07/28 08:12:57;;;;;;;6.30;2.30;;;;;;;15.88;80.82;95970.26;108292;1277;24461;-77
2023/07/28 08:15:31;;;;;;;4.00;2.10;;;;;;;15.82;81.32;95986.33;108280;1276;22541;-76
2023/07/28 08:18:03;;;;;;;2.70;2.40;;;;;;;15.76;81.94;95988.00;108317;1276;22531;-77
2023/07/28 08:20:34;;;;;;;2.50;1.90;;;;;;;15.70;82.68;95990.91;108335;1279;24757;-77
2023/07/28 08:23:06;;;;;;;2.40;1.90;;;;;;;15.63;83.51;95994.48;108349;1279;22530;-77
2023/07/28 08:25:37;;;;;;;2.30;2.00;;;;;;;15.61;84.17;95993.80;108323;1271;22536;-77
2023/07/28 08:28:12;;;;;;;3.80;2.30;;;;;;;15.65;84.59;95988.56;108300;1279;24253;-76
2023/07/28 08:30:43;;;;;;;2.80;2.60;;;;;;;15.75;84.88;95990.17;108317;1272;24163;-77
2023/07/28 08:33:16;;;;;;;3.20;2.50;;;;;;;15.82;84.87;95988.55;108332;1273;22513;-76
2023/07/28 08:35:48;;;;;;;2.90;2.30;;;;;;;15.86;84.74;95982.80;108325;1279;22513;-77
2023/07/28 08:38:19;;;;;;;3.20;2.30;;;;;;;15.86;84.85;95981.21;108328;1279;23182;-77
2023/07/28 08:40:50;;;;;;;4.20;2.40;;;;;;;15.90;85.27;95982.63;108318;1272;22527;-77
2023/07/28 08:43:22;;;;;;;4.00;2.30;;;;;;;15.98;85.52;95973.69;108327;1279;22653;-77
2023/07/28 08:45:54;;;;;;;3.60;2.60;;;;;;;16.01;85.77;95976.70;108238;1271;22544;-77
2023/07/28 08:48:30;;;;;;;3.60;2.50;;;;;;;16.13;86.00;95976.65;108322;1271;22514;-76
2023/07/28 08:51:01;;;;;;;3.70;2.40;;;;;;;16.24;85.88;95976.42;108322;1277;23301;-77
2023/07/28 08:53:35;;;;;;;3.30;2.50;;;;;;;16.26;85.55;95977.56;108332;1279;25991;-77
2023/07/28 08:56:06;;;;;;;3.90;2.80;;;;;;;16.31;85.43;95974.15;108302;1270;25253;-77
2023/07/28 08:58:40;;;;;;;2.70;2.30;;;;;;;16.35;85.33;95969.02;108327;1279;22546;-77
2023/07/28 09:01:11;;;;;;;3.60;2.70;;;;;;;16.36;85.27;95966.68;108300;1279;22538;-77
2023/07/28 09:03:43;;;;;;;3.00;2.40;;;;;;;16.38;85.45;95973.39;108298;1271;25018;-77
2023/07/28 09:06:14;;;;;;;2.40;2.00;;;;;;;16.43;85.57;95975.22;108293;1271;22574;-77
2023/07/28 09:08:45;;;;;;;3.10;2.70;;;;;;;16.47;85.37;95977.77;108323;1272;22519;-76
2023/07/28 09:11:18;;;;;;;3.40;2.50;;;;;;;16.45;85.50;95972.61;108368;1276;22527;-76
2023/07/28 09:13:49;;;;;;;3.40;2.80;;;;;;;16.49;85.49;95975.89;108399;1271;22528;-77
2023/07/28 09:16:21;;;;;;;3.50;2.70;;;;;;;16.56;85.33;95975.14;108305;1279;25349;-77
2023/07/28 09:19:04;;;;;;;2.90;2.40;;;;;;;16.65;85.14;95973.14;108318;1279;25425;-77
2023/07/28 09:21:36;;;;;;;4.20;2.60;;;;;;;16.71;84.78;95972.44;108346;1279;26542;-77
2023/07/28 09:24:10;;;;;;;3.30;2.60;;;;;;;16.74;84.78;95974.63;108367;1279;24030;-77
2023/07/28 09:26:46;;;;;;;3.30;2.50;;;;;;;16.80;84.73;95980.33;108293;1279;23853;-77
2023/07/28 09:29:20;;;;;;;3.40;2.70;;;;;;;16.83;84.47;95976.13;108326;1279;25509;-77
2023/07/28 09:31:52;;;;;;;5.70;3.20;;;;;;;16.85;84.67;95969.77;108332;1272;22551;-77
2023/07/28 09:34:29;;;;;;;2.80;2.20;;;;;;;16.88;84.58;95964.75;108311;1279;25484;-76
2023/07/28 09:37:03;;;;;;;2.70;2.30;;;;;;;16.92;84.37;95960.30;108371;1279;25298;-77
2023/07/28 09:39:41;;;;;;;3.30;2.40;;;;;;;17.01;84.44;95957.07;108313;1279;23675;-76
2023/07/28 09:42:15;;;;;;;3.20;2.10;;;;;;;17.17;84.43;95954.02;108300;1279;24862;-77
2023/07/28 09:44:47;;;;;;;2.90;2.60;;;;;;;17.29;84.23;95951.33;108312;1272;24451;-77
2023/07/28 09:47:18;;;;;;;3.40;2.20;;;;;;;17.42;84.18;95949.73;108342;1276;24143;-77
2023/07/28 09:49:52;;;;;;;3.10;2.60;;;;;;;17.56;83.81;95950.29;108344;1279;22523;-77
2023/07/28 09:52:29;;;;;;;3.40;2.70;;;;;;;17.68;83.60;95948.51;108332;1279;22573;-77
2023/07/28 09:55:06;;;;;;;3.90;2.40;;;;;;;17.74;82.90;95947.70;108312;1279;25278;-77
2023/07/28 09:57:40;;;;;;;3.00;2.20;;;;;;;17.68;82.56;95949.06;108296;1279;22540;-77
2023/07/28 10:00:14;;;;;;;3.10;2.40;;;;;;;17.64;82.41;95945.09;108341;1279;24192;-77
2023/07/28 10:02:46;;;;;;;4.60;3.20;;;;;;;17.63;82.64;95944.98;108354;1279;22527;-77
2023/07/28 10:05:18;;;;;;;3.70;2.70;;;;;;;17.63;82.68;95942.77;108343;1279;23117;-76
2023/07/28 10:07:52;;;;;;;3.30;2.70;;;;;;;17.62;82.49;95945.27;108338;1272;22528;-77
2023/07/28 10:10:23;;;;;;;4.10;2.60;;;;;;;17.60;82.34;95947.58;108330;1279;24179;-76
2023/07/28 10:12:56;;;;;;;2.80;2.20;;;;;;;17.56;82.19;95950.12;108357;1279;22536;-76
2023/07/28 10:15:37;;;;;;;3.30;2.50;;;;;;;17.53;82.21;95950.58;108312;1279;25223;-76
2023/07/28 10:18:09;;;;;;;2.90;2.30;;;;;;;17.51;82.40;95954.14;108314;1279;22564;-76
2023/07/28 10:20:46;;;;;;;3.00;2.50;;;;;;;17.51;82.18;95951.45;108340;1279;22517;-77
2023/07/28 10:23:21;;;;;;;2.70;2.20;;;;;;;17.51;82.23;95955.14;108322;1276;22542;-76
2023/07/28 10:26:00;;;;;;;3.30;2.70;;;;;;;17.54;82.22;95954.98;108310;1279;24028;-77
2023/07/28 10:28:38;;;;;;;3.10;2.50;;;;;;;17.60;82.69;95954.00;108281;1279;24081;-76
2023/07/28 10:31:13;;;;;;;2.80;2.50;;;;;;;17.73;82.55;95955.87;108326;1276;22641;-77
2023/07/28 10:33:47;;;;;;;2.60;2.00;;;;;;;17.88;82.76;95960.13;108316;1272;22524;-76
2023/07/28 10:36:36;;;;;;;3.00;2.10;;;;;;;18.00;82.15;95954.39;108315;1279;25387;-77
2023/07/28 10:39:17;;;;;;;1.80;1.40;;;;;;;18.09;81.89;95958.86;108325;1257;22574;-77
2023/07/28 10:42:13;;;;;;;1.60;1.20;;;;;;;18.17;81.24;95961.05;108322;1279;22567;-76
2023/07/28 10:44:44;;;;;;;1.80;1.40;;;;;;;18.17;80.38;95952.27;108300;1279;22518;-76
2023/07/28 10:47:17;;;;;;;2.50;1.20;;;;;;;18.19;80.28;95959.44;108313;1279;23266;-76
2023/07/28 10:49:51;;;;;;;2.20;1.40;;;;;;;18.20;80.21;95963.98;108318;1279;22713;-77
2023/07/28 10:52:30;;;;;;;1.40;1.10;;;;;;;18.23;80.28;95958.39;108357;1277;22607;-76
2023/07/28 10:55:04;;;;;;;1.60;1.30;;;;;;;18.26;80.32;95973.34;108299;1272;23925;-76
2023/07/28 10:57:36;;;;;;;1.90;1.80;;;;;;;18.34;80.59;95993.73;108321;1279;24228;-76
2023/07/28 11:00:11;;;;;;;2.00;1.80;;;;;;;18.38;80.37;95987.55;108318;1279;22535;-76
2023/07/28 11:02:45;;;;;;;2.10;1.80;;;;;;;18.34;80.67;95987.54;108426;1272;25178;-76
2023/07/28 11:05:23;;;;;;;2.90;1.60;;;;;;;18.37;80.82;95990.73;108329;1279;23840;-76
2023/07/28 11:07:59;;;;;;;1.60;1.40;;;;;;;18.31;81.15;95992.58;108333;1276;22532;-76
2023/07/28 11:10:36;;;;;;;2.60;1.90;;;;;;;18.25;81.34;95994.17;108339;1272;25326;-76
2023/07/28 11:13:08;;;;;;;1.80;1.70;;;;;;;18.15;81.79;95999.86;108319;1279;25444;-76
2023/07/28 11:15:40;;;;;;;3.10;2.10;;;;;;;18.04;82.57;95994.21;108290;1279;22583;-76
2023/07/28 11:18:12;;;;;;;2.40;1.90;;;;;;;18.02;83.27;95998.52;108281;1279;22527;-76
2023/07/28 11:20:45;;;;;;;2.10;1.90;;;;;;;17.95;83.76;95999.94;108347;1273;22666;-76
2023/07/28 11:23:17;;;;;;;2.90;2.30;;;;;;;17.92;84.03;95994.64;108315;1279;22638;-76
2023/07/28 11:25:49;;;;;;;3.10;2.00;;;;;;;17.96;84.88;95994.21;108305;1279;23869;-76
2023/07/28 11:28:22;;;;;;;2.10;1.80;;;;;;;17.97;85.00;95987.70;108303;1272;23281;-76
2023/07/28 11:30:54;;;;;;;2.60;2.10;;;;;;;17.96;85.23;95986.55;108331;1275;23204;-76
2023/07/28 11:33:25;;;;;;;2.80;2.30;;;;;;;17.96;85.40;95990.38;108327;1279;22532;-77
2023/07/28 11:35:59;;;;;;;2.20;2.00;;;;;;;17.91;85.40;95993.33;108300;1279;22589;-76
2023/07/28 11:38:35;;;;;;;2.30;1.90;;;;;;;17.85;85.62;95990.89;108339;1279;22521;-76
2023/07/28 11:41:07;;;;;;;2.40;2.20;;;;;;;17.86;86.06;95989.15;108350;1279;22534;-76
2023/07/28 11:43:38;;;;;;;4.10;1.90;;;;;;;17.93;86.44;95991.08;108315;1264;22726;-76
2023/07/28 11:46:35;;;;;;;2.30;2.10;;;;;;;18.04;86.25;95990.23;108295;1272;22894;-76
2023/07/28 11:49:21;;;;;;;2.40;2.00;;;;;;;18.15;86.20;95989.90;108303;1272;22545;-76